sensor_id;sensor_type;location;lat;lon;timestamp;pressure;altitude;pressure_sealevel;temperature;humidity
71638;BME280;59485;43.542;-5.676;2023-02-15T00:02:06;102145.34;;;11.06;100.00
71638;BME280;59485;43.542;-5.676;2023-02-15T00:04:31;102142.19;;;11.01;100.00
71638;BME280;59485;43.542;-5.676;2023-02-15T00:07:13;102148.91;;;10.99;100.00
71638;BME280;59485;43.542;-5.676;2023-02-15T00:09:38;102151.78;;;10.97;100.00
71638;BME280;59485;43.542;-5.676;2023-02-15T00:12:03;102147.00;;;10.99;100.00
71638;BME280;59485;43.542;-5.676;2023-02-15T00:14:29;102153.28;;;10.91;100.00
71638;BME280;59485;43.542;-5.676;2023-02-15T00:16:54;102153.47;;;10.90;100.00
71638;BME280;59485;43.542;-5.676;2023-02-15T00:21:45;102147.47;;;10.95;100.00
71638;BME280;59485;43.542;-5.676;2023-02-15T00:24:12;102149.56;;;11.01;100.00
71638;BME280;59485;43.542;-5.676;2023-02-15T00:26:41;102145.34;;;11.06;100.00
71638;BME280;59485;43.542;-5.676;2023-02-15T00:29:10;102148.81;;;11.08;100.00
71638;BME280;59485;43.542;-5.676;2023-02-15T00:31:35;102152.94;;;11.12;100.00
71638;BME280;59485;43.542;-5.676;2023-02-15T00:34:01;102153.34;;;11.17;100.00
71638;BME280;59485;43.542;-5.676;2023-02-15T00:36:34;102157.31;;;11.23;100.00
71638;BME280;59485;43.542;-5.676;2023-02-15T00:39:03;102157.84;;;11.26;100.00
71638;BME280;59485;43.542;-5.676;2023-02-15T00:41:30;102158.53;;;11.28;100.00
71638;BME280;59485;43.542;-5.676;2023-02-15T00:43:55;102164.03;;;11.28;100.00
71638;BME280;59485;43.542;-5.676;2023-02-15T00:46:20;102154.41;;;11.24;100.00
71638;BME280;59485;43.542;-5.676;2023-02-15T00:48:46;102159.03;;;11.24;100.00
71638;BME280;59485;43.542;-5.676;2023-02-15T00:51:11;102156.94;;;11.18;100.00
71638;BME280;59485;43.542;-5.676;2023-02-15T00:53:36;102156.94;;;11.18;100.00
71638;BME280;59485;43.542;-5.676;2023-02-15T00:56:02;102158.16;;;11.23;100.00
71638;BME280;59485;43.542;-5.676;2023-02-15T00:58:27;102158.16;;;11.23;100.00
71638;BME280;59485;43.542;-5.676;2023-02-15T01:00:53;102155.97;;;11.27;100.00
71638;BME280;59485;43.542;-5.676;2023-02-15T01:03:19;102156.13;;;11.25;100.00
71638;BME280;59485;43.542;-5.676;2023-02-15T01:05:46;102161.78;;;11.24;100.00
71638;BME280;59485;43.542;-5.676;2023-02-15T01:08:11;102156.28;;;11.24;100.00
71638;BME280;59485;43.542;-5.676;2023-02-15T01:10:37;102170.00;;;11.24;100.00
71638;BME280;59485;43.542;-5.676;2023-02-15T01:13:02;102167.97;;;11.26;100.00
71638;BME280;59485;43.542;-5.676;2023-02-15T01:15:28;102158.53;;;11.28;100.00
71638;BME280;59485;43.542;-5.676;2023-02-15T01:17:53;102158.38;;;11.30;100.00
71638;BME280;59485;43.542;-5.676;2023-02-15T01:20:19;102163.88;;;11.30;100.00
71638;BME280;59485;43.542;-5.676;2023-02-15T01:22:45;102163.88;;;11.30;100.00
71638;BME280;59485;43.542;-5.676;2023-02-15T01:25:14;102167.63;;;11.29;100.00
71638;BME280;59485;43.542;-5.676;2023-02-15T01:33:11;102168.13;;;11.50;100.00
71638;BME280;59485;43.542;-5.676;2023-02-15T01:35:42;102165.72;;;11.55;100.00
71638;BME280;59485;43.542;-5.676;2023-02-15T01:43:13;102165.94;;;11.80;100.00
71638;BME280;59485;43.542;-5.676;2023-02-15T01:45:38;102165.25;;;11.86;100.00
71638;BME280;59485;43.542;-5.676;2023-02-15T01:50:59;102167.72;;;11.97;100.00
71638;BME280;59485;43.542;-5.676;2023-02-15T01:53:34;102160.78;;;11.85;100.00
71638;BME280;59485;43.542;-5.676;2023-02-15T01:56:03;102163.84;;;11.82;100.00
71638;BME280;59485;43.542;-5.676;2023-02-15T01:58:33;102170.72;;;11.78;100.00
71638;BME280;59485;43.542;-5.676;2023-02-15T02:01:00;102174.75;;;11.74;100.00
71638;BME280;59485;43.542;-5.676;2023-02-15T02:06:09;102172.38;;;11.71;100.00
71638;BME280;59485;43.542;-5.676;2023-02-15T02:08:35;102171.28;;;11.63;100.00
71638;BME280;59485;43.542;-5.676;2023-02-15T02:11:00;102165.56;;;11.57;100.00
71638;BME280;59485;43.542;-5.676;2023-02-15T02:13:26;102170.00;;;11.50;100.00
71638;BME280;59485;43.542;-5.676;2023-02-15T02:16:00;102179.06;;;11.42;100.00
71638;BME280;59485;43.542;-5.676;2023-02-15T02:34:20;102187.34;;;11.50;100.00
71638;BME280;59485;43.542;-5.676;2023-02-15T02:42:01;102182.38;;;11.28;100.00
71638;BME280;59485;43.542;-5.676;2023-02-15T02:47:02;102186.25;;;11.17;100.00
71638;BME280;59485;43.542;-5.676;2023-02-15T02:52:04;102176.38;;;11.24;100.00
71638;BME280;59485;43.542;-5.676;2023-02-15T02:54:30;102178.03;;;11.17;100.00
71638;BME280;59485;43.542;-5.676;2023-02-15T02:57:04;102172.75;;;11.24;100.00
71638;BME280;59485;43.542;-5.676;2023-02-15T02:59:39;102171.38;;;11.28;100.00
71638;BME280;59485;43.542;-5.676;2023-02-15T03:02:11;102173.81;;;11.31;100.00
71638;BME280;59485;43.542;-5.676;2023-02-15T03:04:39;102182.72;;;11.25;100.00
71638;BME280;59485;43.542;-5.676;2023-02-15T03:07:08;102180.28;;;11.22;100.00
71638;BME280;59485;43.542;-5.676;2023-02-15T03:12:07;102184.03;;;11.21;100.00
71638;BME280;59485;43.542;-5.676;2023-02-15T03:14:32;102188.75;;;11.11;100.00
71638;BME280;59485;43.542;-5.676;2023-02-15T03:17:01;102188.38;;;11.06;100.00
71638;BME280;59485;43.542;-5.676;2023-02-15T03:19:29;102187.16;;;11.00;100.00
71638;BME280;59485;43.542;-5.676;2023-02-15T03:22:01;102185.72;;;10.96;100.00
71638;BME280;59485;43.542;-5.676;2023-02-15T03:24:49;102183.28;;;10.93;100.00
71638;BME280;59485;43.542;-5.676;2023-02-15T03:27:20;102183.28;;;10.93;100.00
71638;BME280;59485;43.542;-5.676;2023-02-15T03:29:48;102187.63;;;10.96;100.00
71638;BME280;59485;43.542;-5.676;2023-02-15T03:32:15;102190.50;;;10.94;100.00
71638;BME280;59485;43.542;-5.676;2023-02-15T03:34:41;102189.97;;;10.90;100.00
71638;BME280;59485;43.542;-5.676;2023-02-15T03:39:52;102181.69;;;10.82;100.00
71638;BME280;59485;43.542;-5.676;2023-02-15T03:42:22;102195.00;;;10.77;100.00
71638;BME280;59485;43.542;-5.676;2023-02-15T03:47:23;102203.44;;;10.66;100.00
71638;BME280;59485;43.542;-5.676;2023-02-15T03:49:55;102195.53;;;10.63;100.00
71638;BME280;59485;43.542;-5.676;2023-02-15T03:52:23;102205.81;;;10.61;100.00
71638;BME280;59485;43.542;-5.676;2023-02-15T03:54:50;102202.66;;;10.56;100.00
71638;BME280;59485;43.542;-5.676;2023-02-15T03:57:18;102202.97;;;10.53;100.00
71638;BME280;59485;43.542;-5.676;2023-02-15T04:05:38;102200.44;;;10.42;100.00
71638;BME280;59485;43.542;-5.676;2023-02-15T04:08:07;102202.47;;;10.40;100.00
71638;BME280;59485;43.542;-5.676;2023-02-15T04:10:33;102202.63;;;10.38;100.00
71638;BME280;59485;43.542;-5.676;2023-02-15T04:13:17;102201.78;;;10.38;100.00
71638;BME280;59485;43.542;-5.676;2023-02-15T04:15:43;102194.41;;;10.38;100.00
71638;BME280;59485;43.542;-5.676;2023-02-15T04:18:26;102193.72;;;10.36;100.00
71638;BME280;59485;43.542;-5.676;2023-02-15T04:21:10;102189.53;;;10.32;100.00
71638;BME280;59485;43.542;-5.676;2023-02-15T04:23:54;102195.31;;;10.29;100.00
71638;BME280;59485;43.542;-5.676;2023-02-15T04:26:38;102194.63;;;10.27;100.00
71638;BME280;59485;43.542;-5.676;2023-02-15T04:29:04;102202.72;;;10.29;100.00
71638;BME280;59485;43.542;-5.676;2023-02-15T04:31:29;102200.28;;;10.26;100.00
71638;BME280;59485;43.542;-5.676;2023-02-15T04:33:54;102204.88;;;10.25;100.00
71638;BME280;59485;43.542;-5.676;2023-02-15T04:36:20;102212.38;;;10.23;100.00
71638;BME280;59485;43.542;-5.676;2023-02-15T04:38:45;102210.13;;;10.19;100.00
71638;BME280;59485;43.542;-5.676;2023-02-15T04:41:11;102213.41;;;10.12;100.00
71638;BME280;59485;43.542;-5.676;2023-02-15T04:43:37;102214.63;;;10.10;100.00
71638;BME280;59485;43.542;-5.676;2023-02-15T04:46:03;102220.09;;;10.10;100.00
71638;BME280;59485;43.542;-5.676;2023-02-15T04:48:28;102221.53;;;10.04;100.00
71638;BME280;59485;43.542;-5.676;2023-02-15T04:50:54;102221.53;;;10.04;100.00
71638;BME280;59485;43.542;-5.676;2023-02-15T04:53:19;102220.56;;;9.96;100.00
71638;BME280;59485;43.542;-5.676;2023-02-15T04:55:45;102224.47;;;9.93;100.00
71638;BME280;59485;43.542;-5.676;2023-02-15T04:58:10;102229.09;;;9.93;100.00
71638;BME280;59485;43.542;-5.676;2023-02-15T05:00:35;102233.00;;;9.90;100.00
71638;BME280;59485;43.542;-5.676;2023-02-15T05:03:01;102232.75;;;9.84;100.00
71638;BME280;59485;43.542;-5.676;2023-02-15T05:05:26;102234.78;;;9.82;100.00
71638;BME280;59485;43.542;-5.676;2023-02-15T05:07:52;102233.19;;;9.79;100.00
71638;BME280;59485;43.542;-5.676;2023-02-15T05:10:17;102242.72;;;9.75;100.00
71638;BME280;59485;43.542;-5.676;2023-02-15T05:12:43;102239.41;;;9.71;100.00
71638;BME280;59485;43.542;-5.676;2023-02-15T05:15:08;102236.97;;;9.68;100.00
71638;BME280;59485;43.542;-5.676;2023-02-15T05:17:34;102243.16;;;9.70;100.00
71638;BME280;59485;43.542;-5.676;2023-02-15T05:19:59;102240.56;;;9.69;100.00
71638;BME280;59485;43.542;-5.676;2023-02-15T05:22:25;102253.84;;;9.64;100.00
71638;BME280;59485;43.542;-5.676;2023-02-15T05:24:50;102248.81;;;9.59;100.00
71638;BME280;59485;43.542;-5.676;2023-02-15T05:27:34;102254.41;;;9.67;100.00
71638;BME280;59485;43.542;-5.676;2023-02-15T05:30:18;102260.75;;;9.68;100.00
71638;BME280;59485;43.542;-5.676;2023-02-15T05:32:43;102257.00;;;9.69;100.00
71638;BME280;59485;43.542;-5.676;2023-02-15T05:35:11;102265.06;;;9.70;100.00
71638;BME280;59485;43.542;-5.676;2023-02-15T05:43:33;102267.97;;;9.59;100.00
71638;BME280;59485;43.542;-5.676;2023-02-15T05:45:59;102265.81;;;9.53;100.00
71638;BME280;59485;43.542;-5.676;2023-02-15T05:48:26;102270.03;;;9.48;100.00
71638;BME280;59485;43.542;-5.676;2023-02-15T05:53:45;102270.59;;;9.41;100.00
71638;BME280;59485;43.542;-5.676;2023-02-15T05:56:11;102269.88;;;9.39;100.00
71638;BME280;59485;43.542;-5.676;2023-02-15T06:01:13;102276.38;;;9.38;100.00
71638;BME280;59485;43.542;-5.676;2023-02-15T06:03:39;102277.25;;;9.39;100.00
71638;BME280;59485;43.542;-5.676;2023-02-15T06:08:43;102288.59;;;9.34;100.00
71638;BME280;59485;43.542;-5.676;2023-02-15T06:11:11;102291.47;;;9.33;100.00
71638;BME280;59485;43.542;-5.676;2023-02-15T06:13:36;102293.66;;;9.29;100.00
71638;BME280;59485;43.542;-5.676;2023-02-15T06:16:01;102296.41;;;9.29;100.00
71638;BME280;59485;43.542;-5.676;2023-02-15T06:18:27;102305.16;;;9.33;100.00
71638;BME280;59485;43.542;-5.676;2023-02-15T06:20:52;102309.34;;;9.37;100.00
71638;BME280;59485;43.542;-5.676;2023-02-15T06:25:53;102317.56;;;9.37;100.00
71638;BME280;59485;43.542;-5.676;2023-02-15T06:33:40;102322.16;;;9.27;100.00
71638;BME280;59485;43.542;-5.676;2023-02-15T06:36:05;102327.50;;;9.28;100.00
71638;BME280;59485;43.542;-5.676;2023-02-15T06:38:38;102321.03;;;9.29;100.00
71638;BME280;59485;43.542;-5.676;2023-02-15T06:41:06;102329.94;;;9.31;100.00
71638;BME280;59485;43.542;-5.676;2023-02-15T06:43:31;102328.66;;;9.35;100.00
71638;BME280;59485;43.542;-5.676;2023-02-15T06:49:07;102333.25;;;9.35;100.00
71638;BME280;59485;43.542;-5.676;2023-02-15T06:54:08;102334.41;;;9.23;100.00
71638;BME280;59485;43.542;-5.676;2023-02-15T06:56:35;102342.19;;;9.27;100.00
71638;BME280;59485;43.542;-5.676;2023-02-15T06:59:19;102342.06;;;9.29;100.00
71638;BME280;59485;43.542;-5.676;2023-02-15T07:01:45;102342.06;;;9.29;100.00
71638;BME280;59485;43.542;-5.676;2023-02-15T07:04:10;102341.47;;;9.25;100.00
71638;BME280;59485;43.542;-5.676;2023-02-15T07:06:35;102352.53;;;9.24;100.00
71638;BME280;59485;43.542;-5.676;2023-02-15T07:11:49;102364.50;;;9.23;100.00
71638;BME280;59485;43.542;-5.676;2023-02-15T07:14:33;102371.56;;;9.25;100.00
71638;BME280;59485;43.542;-5.676;2023-02-15T07:16:59;102369.81;;;9.24;100.00
71638;BME280;59485;43.542;-5.676;2023-02-15T07:19:24;102377.75;;;9.27;100.00
71638;BME280;59485;43.542;-5.676;2023-02-15T07:21:50;102375.44;;;9.32;100.00
71638;BME280;59485;43.542;-5.676;2023-02-15T07:24:16;102379.91;;;9.33;100.00
71638;BME280;59485;43.542;-5.676;2023-02-15T07:26:41;102384.66;;;9.31;100.00
71638;BME280;59485;43.542;-5.676;2023-02-15T07:29:06;102401.94;;;9.32;100.00
71638;BME280;59485;43.542;-5.676;2023-02-15T07:31:32;102399.38;;;9.30;100.00
71638;BME280;59485;43.542;-5.676;2023-02-15T07:33:57;102409.28;;;9.31;100.00
71638;BME280;59485;43.542;-5.676;2023-02-15T07:36:22;102420.41;;;9.30;100.00
71638;BME280;59485;43.542;-5.676;2023-02-15T07:38:48;102411.47;;;9.28;100.00
71638;BME280;59485;43.542;-5.676;2023-02-15T07:41:14;102409.72;;;9.27;100.00
71638;BME280;59485;43.542;-5.676;2023-02-15T07:43:41;102424.28;;;9.27;100.00
71638;BME280;59485;43.542;-5.676;2023-02-15T07:46:08;102425.28;;;9.26;100.00
71638;BME280;59485;43.542;-5.676;2023-02-15T07:48:34;102432.34;;;9.29;100.00
71638;BME280;59485;43.542;-5.676;2023-02-15T07:51:00;102430.88;;;9.25;100.00
71638;BME280;59485;43.542;-5.676;2023-02-15T07:53:25;102432.63;;;9.26;100.00
71638;BME280;59485;43.542;-5.676;2023-02-15T07:55:51;102440.69;;;9.27;100.00
71638;BME280;59485;43.542;-5.676;2023-02-15T07:58:17;102446.03;;;9.29;100.00
71638;BME280;59485;43.542;-5.676;2023-02-15T08:00:42;102444.88;;;9.31;100.00
71638;BME280;59485;43.542;-5.676;2023-02-15T08:03:23;102442.84;;;9.33;100.00
71638;BME280;59485;43.542;-5.676;2023-02-15T08:05:54;102445.47;;;9.35;100.00
71638;BME280;59485;43.542;-5.676;2023-02-15T08:08:20;102454.53;;;9.35;100.00
71638;BME280;59485;43.542;-5.676;2023-02-15T08:11:09;102458.13;;;9.36;100.00
71638;BME280;59485;43.542;-5.676;2023-02-15T08:16:31;102460.00;;;9.35;100.00
71638;BME280;59485;43.542;-5.676;2023-02-15T08:18:58;102461.00;;;9.34;100.00
71638;BME280;59485;43.542;-5.676;2023-02-15T08:21:24;102467.09;;;9.38;100.00
71638;BME280;59485;43.542;-5.676;2023-02-15T08:23:50;102467.50;;;9.43;100.00
71638;BME280;59485;43.542;-5.676;2023-02-15T08:26:16;102464.38;;;9.48;100.00
71638;BME280;59485;43.542;-5.676;2023-02-15T08:28:42;102471.56;;;9.58;100.00
71638;BME280;59485;43.542;-5.676;2023-02-15T08:31:11;102470.13;;;9.64;100.00
71638;BME280;59485;43.542;-5.676;2023-02-15T08:33:37;102461.34;;;9.70;100.00
71638;BME280;59485;43.542;-5.676;2023-02-15T08:36:04;102465.22;;;9.77;100.00
71638;BME280;59485;43.542;-5.676;2023-02-15T08:38:30;102466.81;;;9.79;100.00
71638;BME280;59485;43.542;-5.676;2023-02-15T08:40:55;102473.75;;;9.84;100.00
71638;BME280;59485;43.542;-5.676;2023-02-15T08:43:21;102488.59;;;9.91;100.00
71638;BME280;59485;43.542;-5.676;2023-02-15T08:45:47;102486.72;;;10.01;100.00
71638;BME280;59485;43.542;-5.676;2023-02-15T08:48:12;102489.88;;;10.06;100.00
71638;BME280;59485;43.542;-5.676;2023-02-15T08:50:38;102491.91;;;10.13;100.00
71638;BME280;59485;43.542;-5.676;2023-02-15T08:53:03;102493.78;;;10.23;100.00
71638;BME280;59485;43.542;-5.676;2023-02-15T08:55:28;102493.22;;;10.29;100.00
71638;BME280;59485;43.542;-5.676;2023-02-15T08:57:54;102493.50;;;10.35;100.00
71638;BME280;59485;43.542;-5.676;2023-02-15T09:00:21;102482.81;;;10.42;100.00
71638;BME280;59485;43.542;-5.676;2023-02-15T09:02:47;102486.69;;;10.49;100.00
71638;BME280;59485;43.542;-5.676;2023-02-15T09:05:12;102487.81;;;10.56;100.00
71638;BME280;59485;43.542;-5.676;2023-02-15T09:07:38;102496.19;;;10.64;100.00
71638;BME280;59485;43.542;-5.676;2023-02-15T09:10:04;102501.78;;;10.72;100.00
71638;BME280;59485;43.542;-5.676;2023-02-15T09:12:29;102503.78;;;10.80;100.00
71638;BME280;59485;43.542;-5.676;2023-02-15T09:14:55;102504.75;;;10.88;100.00
71638;BME280;59485;43.542;-5.676;2023-02-15T09:17:20;102503.13;;;10.96;100.00
71638;BME280;59485;43.542;-5.676;2023-02-15T09:19:45;102509.03;;;11.01;100.00
71638;BME280;59485;43.542;-5.676;2023-02-15T09:22:10;102516.34;;;11.10;100.00
71638;BME280;59485;43.542;-5.676;2023-02-15T09:24:36;102519.91;;;11.20;100.00
71638;BME280;59485;43.542;-5.676;2023-02-15T09:27:01;102524.22;;;11.32;100.00
71638;BME280;59485;43.542;-5.676;2023-02-15T09:29:26;102528.06;;;11.39;100.00
71638;BME280;59485;43.542;-5.676;2023-02-15T09:31:52;102520.94;;;11.46;100.00
71638;BME280;59485;43.542;-5.676;2023-02-15T09:34:19;102536.66;;;11.54;100.00
71638;BME280;59485;43.542;-5.676;2023-02-15T09:36:45;102527.66;;;11.61;100.00
71638;BME280;59485;43.542;-5.676;2023-02-15T09:46:37;102545.22;;;11.96;100.00
71638;BME280;59485;43.542;-5.676;2023-02-15T09:49:54;102545.88;;;12.08;100.00
71638;BME280;59485;43.542;-5.676;2023-02-15T09:54:27;102561.00;;;12.29;100.00
71638;BME280;59485;43.542;-5.676;2023-02-15T09:56:58;102554.41;;;12.40;100.00
71638;BME280;59485;43.542;-5.676;2023-02-15T09:59:51;102565.47;;;12.48;100.00
71638;BME280;59485;43.542;-5.676;2023-02-15T10:10:18;102576.53;;;13.00;100.00
71638;BME280;59485;43.542;-5.676;2023-02-15T10:15:44;102580.31;;;13.25;100.00
71638;BME280;59485;43.542;-5.676;2023-02-15T10:20:49;102585.09;;;13.48;100.00
71638;BME280;59485;43.542;-5.676;2023-02-15T10:28:23;102576.94;;;13.81;100.00
71638;BME280;59485;43.542;-5.676;2023-02-15T10:30:54;102579.56;;;13.90;100.00
71638;BME280;59485;43.542;-5.676;2023-02-15T10:36:15;102585.97;;;14.07;100.00
71638;BME280;59485;43.542;-5.676;2023-02-15T10:51:19;102598.50;;;14.68;100.00
71638;BME280;59485;43.542;-5.676;2023-02-15T10:54:31;102605.06;;;14.75;100.00
71638;BME280;59485;43.542;-5.676;2023-02-15T10:56:38;102601.44;;;14.83;100.00
71638;BME280;59485;43.542;-5.676;2023-02-15T11:05:01;102624.16;;;15.25;100.00
71638;BME280;59485;43.542;-5.676;2023-02-15T11:07:40;102616.19;;;15.38;100.00
71638;BME280;59485;43.542;-5.676;2023-02-15T11:12:38;102618.22;;;15.53;100.00
71638;BME280;59485;43.542;-5.676;2023-02-15T11:17:51;102621.28;;;15.66;100.00
71638;BME280;59485;43.542;-5.676;2023-02-15T11:22:43;102626.13;;;15.72;100.00
71638;BME280;59485;43.542;-5.676;2023-02-15T11:25:16;102628.72;;;15.73;100.00
71638;BME280;59485;43.542;-5.676;2023-02-15T11:27:42;102631.09;;;15.76;100.00
71638;BME280;59485;43.542;-5.676;2023-02-15T11:30:10;102632.66;;;15.79;100.00
71638;BME280;59485;43.542;-5.676;2023-02-15T11:32:40;102629.16;;;15.85;100.00
71638;BME280;59485;43.542;-5.676;2023-02-15T11:37:40;102632.09;;;15.92;100.00
71638;BME280;59485;43.542;-5.676;2023-02-15T11:40:15;102626.53;;;16.00;100.00
71638;BME280;59485;43.542;-5.676;2023-02-15T11:42:43;102630.81;;;16.02;100.00
71638;BME280;59485;43.542;-5.676;2023-02-15T11:47:47;102629.06;;;16.09;100.00
71638;BME280;59485;43.542;-5.676;2023-02-15T11:50:14;102620.94;;;16.08;100.00
71638;BME280;59485;43.542;-5.676;2023-02-15T11:52:41;102619.34;;;16.13;100.00
71638;BME280;59485;43.542;-5.676;2023-02-15T11:55:11;102616.41;;;16.15;100.00
71638;BME280;59485;43.542;-5.676;2023-02-15T11:57:38;102616.75;;;16.12;100.00
71638;BME280;59485;43.542;-5.676;2023-02-15T12:00:06;102614.66;;;16.14;100.00
71638;BME280;59485;43.542;-5.676;2023-02-15T12:02:35;102613.63;;;16.15;100.00
71638;BME280;59485;43.542;-5.676;2023-02-15T12:05:12;102609.31;;;16.12;100.00
71638;BME280;59485;43.542;-5.676;2023-02-15T12:07:44;102604.75;;;16.20;100.00
71638;BME280;59485;43.542;-5.676;2023-02-15T12:10:19;102610.31;;;16.20;100.00
71638;BME280;59485;43.542;-5.676;2023-02-15T12:12:45;102602.06;;;16.11;100.00
71638;BME280;59485;43.542;-5.676;2023-02-15T12:15:12;102619.34;;;16.13;100.00
71638;BME280;59485;43.542;-5.676;2023-02-15T12:17:38;102607.59;;;16.11;100.00
71638;BME280;59485;43.542;-5.676;2023-02-15T12:22:34;102609.41;;;15.96;100.00
71638;BME280;59485;43.542;-5.676;2023-02-15T12:25:02;102609.06;;;15.99;100.00
71638;BME280;59485;43.542;-5.676;2023-02-15T12:27:37;102607.19;;;15.92;100.00
71638;BME280;59485;43.542;-5.676;2023-02-15T12:30:16;102608.06;;;15.92;100.00
71638;BME280;59485;43.542;-5.676;2023-02-15T12:32:48;102607.22;;;15.84;100.00
71638;BME280;59485;43.542;-5.676;2023-02-15T12:35:21;102600.50;;;15.78;100.00
71638;BME280;59485;43.542;-5.676;2023-02-15T12:38:35;102601.50;;;15.85;100.00
71638;BME280;59485;43.542;-5.676;2023-02-15T12:40:35;102600.66;;;15.85;100.00
71638;BME280;59485;43.542;-5.676;2023-02-15T12:43:01;102600.66;;;15.85;100.00
71638;BME280;59485;43.542;-5.676;2023-02-15T12:45:34;102588.03;;;15.90;100.00
71638;BME280;59485;43.542;-5.676;2023-02-15T12:50:38;102587.16;;;15.90;100.00
71638;BME280;59485;43.542;-5.676;2023-02-15T12:53:30;102585.25;;;15.90;100.00
71638;BME280;59485;43.542;-5.676;2023-02-15T12:55:54;102575.88;;;15.99;100.00
71638;BME280;59485;43.542;-5.676;2023-02-15T12:58:29;102575.13;;;16.05;100.00
71638;BME280;59485;43.542;-5.676;2023-02-15T13:01:02;102577.22;;;16.03;100.00
71638;BME280;59485;43.542;-5.676;2023-02-15T13:03:27;102582.44;;;15.98;100.00
71638;BME280;59485;43.542;-5.676;2023-02-15T13:05:53;102575.00;;;15.99;100.00
71638;BME280;59485;43.542;-5.676;2023-02-15T13:13:21;102567.81;;;16.12;100.00
71638;BME280;59485;43.542;-5.676;2023-02-15T13:15:52;102571.19;;;16.00;100.00
71638;BME280;59485;43.542;-5.676;2023-02-15T13:18:31;102557.19;;;16.01;100.00
71638;BME280;59485;43.542;-5.676;2023-02-15T13:20:59;102563.94;;;15.99;100.00
71638;BME280;59485;43.542;-5.676;2023-02-15T13:23:27;102567.63;;;16.14;100.00
71638;BME280;59485;43.542;-5.676;2023-02-15T13:25:52;102567.97;;;16.19;100.00
71638;BME280;59485;43.542;-5.676;2023-02-15T13:28:20;102566.72;;;16.22;100.00
71638;BME280;59485;43.542;-5.676;2023-02-15T13:30:47;102562.16;;;16.29;100.00
71638;BME280;59485;43.542;-5.676;2023-02-15T13:33:16;102555.78;;;16.28;100.00
71638;BME280;59485;43.542;-5.676;2023-02-15T13:38:46;102548.81;;;16.55;100.00
71638;BME280;59485;43.542;-5.676;2023-02-15T13:41:27;102549.78;;;16.85;100.00
71638;BME280;59485;43.542;-5.676;2023-02-15T13:44:13;102552.94;;;17.11;100.00
71638;BME280;59485;43.542;-5.676;2023-02-15T13:46:56;102562.69;;;17.37;100.00
71638;BME280;59485;43.542;-5.676;2023-02-15T13:52:20;102549.97;;;17.57;100.00
71638;BME280;59485;43.542;-5.676;2023-02-15T14:00:22;102547.59;;;17.54;100.00
71638;BME280;59485;43.542;-5.676;2023-02-15T14:09:30;102549.97;;;17.57;100.00
71638;BME280;59485;43.542;-5.676;2023-02-15T14:14:31;102552.38;;;17.60;100.00
71638;BME280;59485;43.542;-5.676;2023-02-15T14:20:11;102545.63;;;17.63;100.00
71638;BME280;59485;43.542;-5.676;2023-02-15T14:22:45;102546.91;;;17.81;100.00
71638;BME280;59485;43.542;-5.676;2023-02-15T14:25:34;102547.94;;;17.95;100.00
71638;BME280;59485;43.542;-5.676;2023-02-15T14:30:43;102556.88;;;17.76;100.00
71638;BME280;59485;43.542;-5.676;2023-02-15T14:33:38;102556.75;;;17.84;100.00
71638;BME280;59485;43.542;-5.676;2023-02-15T14:36:10;102553.50;;;17.95;100.00
71638;BME280;59485;43.542;-5.676;2023-02-15T14:41:42;102554.09;;;18.12;100.00
71638;BME280;59485;43.542;-5.676;2023-02-15T14:44:17;102541.94;;;18.13;100.00
71638;BME280;59485;43.542;-5.676;2023-02-15T14:47:15;102552.44;;;18.17;100.00
71638;BME280;59485;43.542;-5.676;2023-02-15T14:49:43;102547.31;;;18.14;100.00
71638;BME280;59485;43.542;-5.676;2023-02-15T14:52:10;102555.50;;;18.22;100.00
71638;BME280;59485;43.542;-5.676;2023-02-15T15:02:24;102556.03;;;18.32;100.00
71638;BME280;59485;43.542;-5.676;2023-02-15T15:05:10;102560.31;;;18.35;100.00
71638;BME280;59485;43.542;-5.676;2023-02-15T15:12:55;102565.00;;;18.56;97.83
71638;BME280;59485;43.542;-5.676;2023-02-15T15:18:05;102566.00;;;18.48;96.05
71638;BME280;59485;43.542;-5.676;2023-02-15T15:20:49;102562.59;;;18.67;98.91
71638;BME280;59485;43.542;-5.676;2023-02-15T15:34:09;102561.19;;;19.06;87.23
71638;BME280;59485;43.542;-5.676;2023-02-15T15:39:57;102564.19;;;19.39;83.98
71638;BME280;59485;43.542;-5.676;2023-02-15T15:45:23;102570.50;;;19.54;86.09
71638;BME280;59485;43.542;-5.676;2023-02-15T15:50:41;102563.09;;;19.68;82.44
71638;BME280;59485;43.542;-5.676;2023-02-15T15:53:16;102565.03;;;19.67;81.15
71638;BME280;59485;43.542;-5.676;2023-02-15T15:55:47;102555.84;;;19.80;80.88
71638;BME280;59485;43.542;-5.676;2023-02-15T15:58:16;102563.63;;;19.98;86.18
71638;BME280;59485;43.542;-5.676;2023-02-15T16:03:29;102553.22;;;20.26;83.72
71638;BME280;59485;43.542;-5.676;2023-02-15T16:05:55;102552.78;;;20.22;90.21
71638;BME280;59485;43.542;-5.676;2023-02-15T16:10:52;102560.25;;;20.09;91.33
71638;BME280;59485;43.542;-5.676;2023-02-15T16:13:18;102553.38;;;20.05;95.89
71638;BME280;59485;43.542;-5.676;2023-02-15T16:15:44;102551.63;;;19.91;97.04
71638;BME280;59485;43.542;-5.676;2023-02-15T16:18:13;102553.06;;;19.73;100.00
71638;BME280;59485;43.542;-5.676;2023-02-15T16:20:50;102558.00;;;19.43;100.00
71638;BME280;59485;43.542;-5.676;2023-02-15T16:25:47;102563.56;;;19.09;100.00
71638;BME280;59485;43.542;-5.676;2023-02-15T16:28:16;102569.97;;;18.82;100.00
71638;BME280;59485;43.542;-5.676;2023-02-15T16:30:43;102567.16;;;18.75;100.00
71638;BME280;59485;43.542;-5.676;2023-02-15T16:35:35;102575.72;;;18.16;100.00
71638;BME280;59485;43.542;-5.676;2023-02-15T16:38:01;102578.41;;;18.10;100.00
71638;BME280;59485;43.542;-5.676;2023-02-15T16:40:35;102576.63;;;18.02;100.00
71638;BME280;59485;43.542;-5.676;2023-02-15T16:43:04;102580.88;;;17.83;100.00